Time;durP1;ratioP1;P1;durP2;ratioP2;P2;SDS_P1;SDS_P2;PMS_P1;PMS_P2;Temp;Humidity;BMP_temperature;BMP_pressure;BME280_temperature;BME280_humidity;BME280_pressure;Samples;Min_cycle;Max_cycle;Signal;HPM_P1;HPM_P2
2021/11/07 00:00:24;;;;;;;18.63;7.32;;;;;;;;;;5074706;28;20109;-50
2021/11/07 00:03:38;;;;;;;15.88;6.82;;;;;;;;;;5074618;28;20400;-50
2021/11/07 00:05:48;;;;;;;20.75;7.00;;;;;;;;;;5076787;28;20036;-50
2021/11/07 00:11:05;;;;;;;21.15;7.38;;;;;;;;;;5074845;28;20040;-50
2021/11/07 00:13:31;;;;;;;18.02;6.88;;;;;;;;;;5073487;28;20066;-50
2021/11/07 00:16:01;;;;;;;24.95;8.93;;;;;;;;;;5074598;28;20032;-50
2021/11/07 00:18:35;;;;;;;19.33;6.95;;;;;;;;;;5074491;28;20107;-50
2021/11/07 00:26:17;;;;;;;17.15;7.05;;;;;;;;;;5072885;28;20039;-50
2021/11/07 00:36:25;;;;;;;16.27;6.80;;;;;;;;;;5074242;28;20031;-51
2021/11/07 00:38:58;;;;;;;13.98;6.55;;;;;;;;;;5074505;28;20032;-50
2021/11/07 00:44:18;;;;;;;20.48;7.30;;;;;;;;;;5072923;28;20067;-50
2021/11/07 00:46:51;;;;;;;16.00;6.00;;;;;;;;;;5074115;28;20029;-50
2021/11/07 00:49:23;;;;;;;11.82;4.72;;;;;;;;;;5073820;28;20060;-50
2021/11/07 00:52:27;;;;;;;17.60;7.80;;;;;;;;;;5073274;28;20501;-50
2021/11/07 00:54:55;;;;;;;14.18;6.97;;;;;;;;;;5073182;28;20037;-50
2021/11/07 00:57:27;;;;;;;14.40;6.00;;;;;;;;;;5073659;28;20043;-50
2021/11/07 01:00:02;;;;;;;15.48;5.82;;;;;;;;;;5073508;28;20060;-50
2021/11/07 01:02:32;;;;;;;6.15;3.70;;;;;;;;;;5073123;28;20042;-50
2021/11/07 01:04:59;;;;;;;11.18;4.88;;;;;;;;;;5072888;28;20438;-50
2021/11/07 01:07:25;;;;;;;17.30;6.60;;;;;;;;;;5073271;28;20500;-50
2021/11/07 01:09:53;;;;;;;15.85;6.43;;;;;;;;;;5073611;28;20025;-50
2021/11/07 01:12:21;;;;;;;14.32;6.13;;;;;;;;;;5073008;28;20378;-50
2021/11/07 01:14:47;;;;;;;13.10;7.13;;;;;;;;;;5072024;28;20102;-50
2021/11/07 01:17:13;;;;;;;18.30;8.27;;;;;;;;;;5073353;28;20020;-50
2021/11/07 01:19:41;;;;;;;20.83;8.18;;;;;;;;;;5073542;28;20149;-50
2021/11/07 01:22:10;;;;;;;20.02;8.18;;;;;;;;;;5073176;28;20370;-50
2021/11/07 01:24:40;;;;;;;19.95;7.97;;;;;;;;;;5071525;28;20287;-50
2021/11/07 01:27:13;;;;;;;19.02;7.75;;;;;;;;;;5073087;28;20131;-50
2021/11/07 01:29:44;;;;;;;19.73;8.02;;;;;;;;;;5073351;28;20028;-50
2021/11/07 01:32:10;;;;;;;15.82;6.70;;;;;;;;;;5072050;28;20087;-50
2021/11/07 01:34:54;;;;;;;16.52;5.60;;;;;;;;;;5072537;28;20085;-50
2021/11/07 01:37:23;;;;;;;16.73;8.20;;;;;;;;;;5072919;28;20473;-50
2021/11/07 01:42:32;;;;;;;19.38;7.50;;;;;;;;;;5072974;28;20082;-50
2021/11/07 01:45:03;;;;;;;15.75;6.90;;;;;;;;;;5072313;28;20029;-50
2021/11/07 01:47:29;;;;;;;20.60;7.97;;;;;;;;;;5072693;28;20082;-51
2021/11/07 01:49:56;;;;;;;14.00;6.70;;;;;;;;;;5072970;28;20032;-51
2021/11/07 01:52:24;;;;;;;13.98;6.32;;;;;;;;;;5073124;28;20032;-50
2021/11/07 01:55:03;;;;;;;12.85;4.85;;;;;;;;;;5072131;28;20520;-51
2021/11/07 01:57:30;;;;;;;16.67;6.18;;;;;;;;;;5072355;28;20460;-50
2021/11/07 01:59:58;;;;;;;15.65;6.65;;;;;;;;;;5072939;28;20016;-50
2021/11/07 02:02:25;;;;;;;14.32;5.75;;;;;;;;;;5072340;28;20031;-50
2021/11/07 02:04:51;;;;;;;14.98;7.07;;;;;;;;;;5072094;28;20488;-51
2021/11/07 02:07:18;;;;;;;14.57;6.32;;;;;;;;;;5072471;28;20032;-50
2021/11/07 02:09:44;;;;;;;15.18;5.88;;;;;;;;;;5073243;28;20025;-50
2021/11/07 02:12:11;;;;;;;11.50;5.53;;;;;;;;;;5072896;28;20120;-50
2021/11/07 02:14:37;;;;;;;13.52;4.88;;;;;;;;;;5071376;28;20097;-50
2021/11/07 02:17:03;;;;;;;13.50;5.78;;;;;;;;;;5072571;28;20021;-50
2021/11/07 02:19:30;;;;;;;18.48;7.07;;;;;;;;;;5072492;28;20024;-50
2021/11/07 02:21:56;;;;;;;14.02;6.32;;;;;;;;;;5072808;28;20103;-50
2021/11/07 02:24:22;;;;;;;12.48;6.38;;;;;;;;;;5071852;28;20032;-50
2021/11/07 02:26:56;;;;;;;11.15;4.95;;;;;;;;;;5071331;28;20044;-50
2021/11/07 02:29:23;;;;;;;15.07;6.03;;;;;;;;;;5072677;28;20040;-50
2021/11/07 02:31:51;;;;;;;15.90;6.47;;;;;;;;;;5072226;28;20464;-50
2021/11/07 02:34:17;;;;;;;16.42;6.65;;;;;;;;;;5071450;28;20097;-50
2021/11/07 02:36:44;;;;;;;13.57;6.38;;;;;;;;;;5072742;28;20041;-50
2021/11/07 02:39:13;;;;;;;10.30;4.85;;;;;;;;;;5072391;28;20052;-51
2021/11/07 02:41:40;;;;;;;14.32;6.10;;;;;;;;;;5068716;28;20032;-50
2021/11/07 02:44:06;;;;;;;18.58;6.95;;;;;;;;;;5055000;28;20025;-50
2021/11/07 02:46:32;;;;;;;23.73;8.77;;;;;;;;;;5056397;28;20021;-50
2021/11/07 02:49:00;;;;;;;20.95;7.75;;;;;;;;;;5056227;28;20063;-50
2021/11/07 02:51:28;;;;;;;17.00;6.47;;;;;;;;;;5056232;28;20040;-50
2021/11/07 02:53:54;;;;;;;13.27;5.90;;;;;;;;;;5054822;28;20113;-50
2021/11/07 02:56:20;;;;;;;15.45;6.65;;;;;;;;;;5056072;28;20060;-50
2021/11/07 02:58:47;;;;;;;17.35;7.13;;;;;;;;;;5056218;28;20454;-50
2021/11/07 03:01:14;;;;;;;14.77;6.15;;;;;;;;;;5056293;28;20324;-50
2021/11/07 03:03:40;;;;;;;23.35;7.82;;;;;;;;;;5054672;28;20029;-51
2021/11/07 03:06:06;;;;;;;14.93;5.70;;;;;;;;;;5055586;28;20025;-50
2021/11/07 03:08:32;;;;;;;19.13;6.30;;;;;;;;;;5055485;28;20025;-50
2021/11/07 03:10:59;;;;;;;12.48;6.05;;;;;;;;;;5055998;28;20442;-50
2021/11/07 03:13:26;;;;;;;15.35;5.75;;;;;;;;;;5054710;28;20451;-50
2021/11/07 03:15:52;;;;;;;11.38;5.57;;;;;;;;;;5055584;28;20154;-50
2021/11/07 03:18:18;;;;;;;13.82;5.80;;;;;;;;;;5055288;28;20462;-50
2021/11/07 03:20:45;;;;;;;2.53;1.70;;;;;;;;;;5055807;28;20028;-50
2021/11/07 03:23:11;;;;;;;11.77;5.45;;;;;;;;;;5054854;28;20102;-50
2021/11/07 03:25:47;;;;;;;11.80;4.97;;;;;;;;;;5054372;28;20219;-50
2021/11/07 03:28:13;;;;;;;20.95;6.78;;;;;;;;;;5055551;28;20336;-50
2021/11/07 03:31:02;;;;;;;14.45;6.90;;;;;;;;;;5055188;28;20442;-50
2021/11/07 03:33:38;;;;;;;16.88;6.32;;;;;;;;;;5054278;28;20033;-50
2021/11/07 03:36:06;;;;;;;11.88;6.15;;;;;;;;;;5055286;28;20120;-50
2021/11/07 03:38:32;;;;;;;15.52;5.93;;;;;;;;;;5055249;28;20041;-50
2021/11/07 03:40:58;;;;;;;16.25;7.18;;;;;;;;;;5055474;28;20021;-50
2021/11/07 03:43:28;;;;;;;11.43;5.53;;;;;;;;;;5053759;28;20116;-51
2021/11/07 03:45:54;;;;;;;6.00;2.37;;;;;;;;;;5055318;28;20103;-50
2021/11/07 03:48:21;;;;;;;8.88;4.70;;;;;;;;;;5055282;28;20435;-50
2021/11/07 03:50:47;;;;;;;14.77;4.25;;;;;;;;;;5049220;28;20033;-50
2021/11/07 03:53:13;;;;;;;17.85;7.88;;;;;;;;;;5053697;28;20025;-50
2021/11/07 03:55:39;;;;;;;12.15;5.90;;;;;;;;;;5053946;28;20025;-50
2021/11/07 03:58:05;;;;;;;11.50;4.93;;;;;;;;;;5054454;28;20017;-51
2021/11/07 04:00:32;;;;;;;14.20;6.68;;;;;;;;;;5055033;28;20025;-50
2021/11/07 04:02:58;;;;;;;19.73;7.35;;;;;;;;;;5053928;28;20036;-50
2021/11/07 04:05:24;;;;;;;17.02;7.22;;;;;;;;;;5054518;28;20380;-50
2021/11/07 04:07:51;;;;;;;15.80;7.50;;;;;;;;;;5054344;28;20025;-50
2021/11/07 04:10:17;;;;;;;19.98;6.55;;;;;;;;;;5054630;28;20028;-50
2021/11/07 04:12:43;;;;;;;19.98;6.93;;;;;;;;;;5054247;28;20466;-50
2021/11/07 04:15:10;;;;;;;14.75;6.57;;;;;;;;;;5053846;28;20352;-50
2021/11/07 04:17:36;;;;;;;2.03;1.38;;;;;;;;;;5053867;28;20032;-50
2021/11/07 04:20:03;;;;;;;10.35;4.70;;;;;;;;;;5054005;28;20053;-50
2021/11/07 04:22:29;;;;;;;5.40;3.25;;;;;;;;;;5054378;28;20055;-50
2021/11/07 04:24:55;;;;;;;14.90;5.43;;;;;;;;;;5051980;28;20036;-50
2021/11/07 04:27:23;;;;;;;11.18;4.30;;;;;;;;;;5054482;28;20025;-50
2021/11/07 04:29:49;;;;;;;8.93;4.50;;;;;;;;;;5054057;28;20059;-50
2021/11/07 04:32:15;;;;;;;12.50;5.15;;;;;;;;;;5054137;28;20523;-50
2021/11/07 04:34:42;;;;;;;11.88;4.72;;;;;;;;;;5053432;28;20379;-50
2021/11/07 04:37:08;;;;;;;7.43;4.40;;;;;;;;;;5053986;28;20397;-50
2021/11/07 04:39:34;;;;;;;15.13;6.18;;;;;;;;;;5053952;28;20029;-50
2021/11/07 04:42:01;;;;;;;5.00;2.30;;;;;;;;;;5054018;28;20017;-50
2021/11/07 04:44:27;;;;;;;1.92;1.42;;;;;;;;;;5053143;28;20025;-50
2021/11/07 04:46:54;;;;;;;4.78;2.92;;;;;;;;;;5053803;28;20072;-50
2021/11/07 04:49:20;;;;;;;5.75;2.60;;;;;;;;;;5053652;28;20451;-50
2021/11/07 04:51:47;;;;;;;5.60;2.42;;;;;;;;;;5053638;28;20017;-50
2021/11/07 04:54:13;;;;;;;7.32;2.60;;;;;;;;;;5053133;28;20041;-50
2021/11/07 04:56:40;;;;;;;8.65;3.38;;;;;;;;;;5053608;28;20057;-50
2021/11/07 04:59:06;;;;;;;9.23;4.30;;;;;;;;;;5053916;28;20090;-50
2021/11/07 05:01:32;;;;;;;15.73;5.75;;;;;;;;;;5053496;28;20031;-50
2021/11/07 05:03:58;;;;;;;6.45;3.20;;;;;;;;;;5052938;28;20127;-50
2021/11/07 05:06:24;;;;;;;11.25;5.55;;;;;;;;;;5053210;28;20354;-50
2021/11/07 05:08:50;;;;;;;9.90;4.75;;;;;;;;;;5053363;28;20103;-50
2021/11/07 05:11:17;;;;;;;11.57;4.70;;;;;;;;;;5053844;28;20013;-50
2021/11/07 05:13:43;;;;;;;15.30;6.03;;;;;;;;;;5052346;28;20067;-50
2021/11/07 05:16:09;;;;;;;15.15;6.05;;;;;;;;;;5053573;28;20048;-50
2021/11/07 05:18:35;;;;;;;10.70;4.18;;;;;;;;;;5052923;28;20421;-50
2021/11/07 05:21:02;;;;;;;14.98;5.20;;;;;;;;;;5053064;28;20323;-50
2021/11/07 05:23:28;;;;;;;26.02;7.32;;;;;;;;;;5052165;28;20086;-50
2021/11/07 05:25:55;;;;;;;16.63;6.85;;;;;;;;;;5051959;28;20051;-50
2021/11/07 05:28:22;;;;;;;12.00;5.50;;;;;;;;;;5052985;28;20044;-50
2021/11/07 05:30:48;;;;;;;13.85;5.57;;;;;;;;;;5052842;28;20037;-50
2021/11/07 05:33:15;;;;;;;11.45;5.72;;;;;;;;;;5052197;28;20553;-50
2021/11/07 05:35:42;;;;;;;16.58;6.45;;;;;;;;;;5052729;28;20053;-50
2021/11/07 05:38:08;;;;;;;15.35;6.45;;;;;;;;;;5053358;28;20075;-50
2021/11/07 05:40:34;;;;;;;16.90;6.15;;;;;;;;;;5053144;28;20431;-50
2021/11/07 05:43:00;;;;;;;14.80;5.97;;;;;;;;;;5052360;28;20100;-50
2021/11/07 05:45:26;;;;;;;13.98;5.97;;;;;;;;;;5052521;28;20045;-50
2021/11/07 05:47:52;;;;;;;11.30;5.25;;;;;;;;;;5053105;28;20017;-50
2021/11/07 05:50:19;;;;;;;16.88;6.70;;;;;;;;;;5052768;28;20035;-50
2021/11/07 05:52:45;;;;;;;9.23;4.57;;;;;;;;;;5052707;28;20017;-50
2021/11/07 05:55:11;;;;;;;10.13;5.13;;;;;;;;;;5052310;28;20056;-50
2021/11/07 05:57:38;;;;;;;15.20;6.78;;;;;;;;;;5052793;28;20061;-50
2021/11/07 06:00:05;;;;;;;13.02;5.97;;;;;;;;;;5052381;28;20025;-51
2021/11/07 06:02:31;;;;;;;12.18;5.63;;;;;;;;;;5052615;28;20047;-50
2021/11/07 06:04:57;;;;;;;13.65;5.78;;;;;;;;;;5051813;28;20021;-50
2021/11/07 06:07:23;;;;;;;15.52;5.60;;;;;;;;;;5052660;28;20028;-50
2021/11/07 06:09:49;;;;;;;14.27;5.47;;;;;;;;;;5053079;28;20021;-50
2021/11/07 06:12:15;;;;;;;12.85;5.55;;;;;;;;;;5052633;28;20505;-50
2021/11/07 06:14:41;;;;;;;17.92;7.40;;;;;;;;;;5051727;28;20347;-50
2021/11/07 06:17:07;;;;;;;13.48;5.43;;;;;;;;;;5052311;28;20040;-50
2021/11/07 06:19:34;;;;;;;7.22;2.90;;;;;;;;;;5056958;28;20056;-50
2021/11/07 06:22:00;;;;;;;12.35;5.47;;;;;;;;;;5056497;28;20021;-50
2021/11/07 06:24:27;;;;;;;12.90;6.15;;;;;;;;;;5055750;28;20048;-50
2021/11/07 06:26:55;;;;;;;15.65;5.65;;;;;;;;;;5055346;28;20029;-50
2021/11/07 06:29:21;;;;;;;11.80;6.20;;;;;;;;;;5056363;28;20041;-51
2021/11/07 06:31:50;;;;;;;19.00;7.72;;;;;;;;;;5058485;28;20025;-50
2021/11/07 06:34:16;;;;;;;10.55;4.72;;;;;;;;;;5075376;28;20036;-50
2021/11/07 06:36:42;;;;;;;10.27;4.88;;;;;;;;;;5076157;28;20033;-50
2021/11/07 06:39:08;;;;;;;8.25;4.55;;;;;;;;;;5075449;28;20115;-50
2021/11/07 06:41:34;;;;;;;11.68;4.95;;;;;;;;;;5076387;28;20637;-50
2021/11/07 06:44:01;;;;;;;16.90;7.35;;;;;;;;;;5071105;28;20074;-50
2021/11/07 06:46:27;;;;;;;16.98;6.40;;;;;;;;;;5066194;28;20093;-50
2021/11/07 06:48:53;;;;;;;17.98;6.05;;;;;;;;;;5056030;28;20021;-50
2021/11/07 06:51:21;;;;;;;7.28;3.42;;;;;;;;;;5056406;28;20021;-50
2021/11/07 06:53:48;;;;;;;15.55;4.72;;;;;;;;;;5064128;28;20051;-49
2021/11/07 06:56:14;;;;;;;12.77;5.95;;;;;;;;;;5075847;28;20021;-50
2021/11/07 06:58:41;;;;;;;18.33;7.32;;;;;;;;;;5071485;28;20082;-50
2021/11/07 07:01:07;;;;;;;18.17;4.78;;;;;;;;;;5075806;28;20439;-50
2021/11/07 07:03:33;;;;;;;12.82;5.22;;;;;;;;;;5074908;28;20108;-50
2021/11/07 07:06:00;;;;;;;12.23;4.80;;;;;;;;;;5075599;28;20107;-50
2021/11/07 07:08:31;;;;;;;14.32;5.50;;;;;;;;;;5075439;28;20094;-50
2021/11/07 07:13:31;;;;;;;15.63;4.38;;;;;;;;;;5074856;28;20119;-50
2021/11/07 07:16:18;;;;;;;12.40;6.10;;;;;;;;;;5075345;28;20033;-50
2021/11/07 07:21:27;;;;;;;14.85;6.60;;;;;;;;;;5075936;28;20031;-50
2021/11/07 07:26:49;;;;;;;15.85;6.15;;;;;;;;;;5068697;28;20056;-50
2021/11/07 07:33:02;;;;;;;21.77;8.05;;;;;;;;;;5067231;28;20310;-50
2021/11/07 07:34:57;;;;;;;19.38;7.32;;;;;;;;;;5077629;28;20080;-50
2021/11/07 07:37:23;;;;;;;17.88;7.35;;;;;;;;;;5074139;28;20462;-50
2021/11/07 07:39:49;;;;;;;15.90;6.38;;;;;;;;;;5075236;28;20031;-50
2021/11/07 07:42:15;;;;;;;3.30;2.35;;;;;;;;;;5075666;28;20016;-51
2021/11/07 07:44:41;;;;;;;20.40;6.82;;;;;;;;;;5073565;28;20021;-50
2021/11/07 07:47:07;;;;;;;15.77;4.70;;;;;;;;;;5075387;28;20028;-50
2021/11/07 07:49:34;;;;;;;16.02;6.15;;;;;;;;;;5074762;28;20418;-50
2021/11/07 07:52:00;;;;;;;10.02;5.13;;;;;;;;;;5074987;28;20413;-50
2021/11/07 07:54:26;;;;;;;19.70;8.23;;;;;;;;;;5071398;28;20041;-50
2021/11/07 07:56:52;;;;;;;15.27;7.30;;;;;;;;;;5071076;28;20369;-50
2021/11/07 07:59:19;;;;;;;13.43;5.35;;;;;;;;;;5074199;28;20066;-50
2021/11/07 08:01:46;;;;;;;12.52;5.30;;;;;;;;;;5074922;28;20082;-50
2021/11/07 08:04:12;;;;;;;14.75;5.03;;;;;;;;;;5074157;28;20028;-50
2021/11/07 08:06:38;;;;;;;13.02;5.85;;;;;;;;;;5074632;28;20362;-51
2021/11/07 08:09:04;;;;;;;4.22;2.10;;;;;;;;;;5074526;28;20020;-50
2021/11/07 08:11:30;;;;;;;12.23;4.88;;;;;;;;;;5070336;28;20029;-50
2021/11/07 08:13:56;;;;;;;4.97;3.10;;;;;;;;;;5073006;28;20415;-50
2021/11/07 08:16:23;;;;;;;1.05;0.85;;;;;;;;;;5074694;28;20021;-50
2021/11/07 08:18:50;;;;;;;16.73;6.45;;;;;;;;;;5074742;28;20089;-50
2021/11/07 08:21:17;;;;;;;8.18;4.90;;;;;;;;;;5065956;28;20028;-50
2021/11/07 08:23:44;;;;;;;27.10;8.70;;;;;;;;;;5073081;28;20035;-50
2021/11/07 08:26:11;;;;;;;15.00;6.30;;;;;;;;;;5072105;28;20029;-50
2021/11/07 08:28:37;;;;;;;15.45;6.05;;;;;;;;;;5071753;28;20095;-50
2021/11/07 08:31:06;;;;;;;16.38;5.38;;;;;;;;;;5073560;28;20158;-50
2021/11/07 08:33:33;;;;;;;10.07;4.32;;;;;;;;;;5073312;28;20024;-50
2021/11/07 08:36:05;;;;;;;17.00;6.18;;;;;;;;;;5072337;28;20058;-50
2021/11/07 08:38:37;;;;;;;16.60;7.57;;;;;;;;;;5054047;28;20115;-50
2021/11/07 08:41:04;;;;;;;16.42;7.60;;;;;;;;;;5053159;28;20451;-51
2021/11/07 09:00:16;;;;;;;6.85;3.10;;;;;;;;;;5054565;28;20036;-51
2021/11/07 09:05:28;;;;;;;14.55;6.28;;;;;;;;;;5073473;28;20053;-50
2021/11/07 09:08:14;;;;;;;12.90;6.30;;;;;;;;;;5073326;28;20027;-50
2021/11/07 09:10:40;;;;;;;17.30;6.38;;;;;;;;;;5072802;28;20021;-50
2021/11/07 09:13:09;;;;;;;1.17;1.05;;;;;;;;;;5071983;28;20052;-51
2021/11/07 09:15:36;;;;;;;8.95;4.13;;;;;;;;;;5072874;28;20036;-50
2021/11/07 09:18:03;;;;;;;14.93;5.25;;;;;;;;;;5072884;28;20042;-51
2021/11/07 09:20:40;;;;;;;8.65;2.83;;;;;;;;;;5072818;28;20363;-50
2021/11/07 09:23:14;;;;;;;15.55;5.53;;;;;;;;;;5076040;28;20364;-50
2021/11/07 09:25:44;;;;;;;3.25;2.40;;;;;;;;;;5061893;28;20017;-50
2021/11/07 09:28:17;;;;;;;8.57;4.43;;;;;;;;;;5069737;28;20030;-50
2021/11/07 09:30:53;;;;;;;13.50;2.70;;;;;;;;;;5068856;28;20047;-50
2021/11/07 09:33:43;;;;;;;13.73;5.38;;;;;;;;;;5077474;28;20035;-50
2021/11/07 09:36:23;;;;;;;7.55;3.78;;;;;;;;;;5052704;28;20154;-50
2021/11/07 09:38:53;;;;;;;18.65;8.30;;;;;;;;;;5053190;28;20033;-50
2021/11/07 09:46:38;;;;;;;14.60;5.25;;;;;;;;;;5053098;28;20033;-50
2021/11/07 09:49:21;;;;;;;14.07;5.32;;;;;;;;;;5058684;28;20029;-51
2021/11/07 09:51:54;;;;;;;1.40;1.35;;;;;;;;;;5067817;28;20035;-51
2021/11/07 09:54:21;;;;;;;6.82;2.95;;;;;;;;;;5071704;28;20055;-50
2021/11/07 09:56:51;;;;;;;2.78;1.27;;;;;;;;;;5071967;28;20055;-51
2021/11/07 09:59:19;;;;;;;1.67;1.58;;;;;;;;;;5068505;28;20033;-50
2021/11/07 10:01:45;;;;;;;8.45;3.63;;;;;;;;;;5072007;28;20024;-50
2021/11/07 10:04:13;;;;;;;8.65;2.60;;;;;;;;;;5071869;28;20020;-51
2021/11/07 10:09:09;;;;;;;;;;;;;;;;;;5071290;28;20076;-51
2021/11/07 10:11:40;;;;;;;11.95;4.45;;;;;;;;;;5070131;28;19943;-50
2021/11/07 10:14:19;;;;;;;15.57;6.78;;;;;;;;;;5071931;28;20036;-50
2021/11/07 10:16:54;;;;;;;11.40;4.82;;;;;;;;;;5068405;28;20558;-52
2021/11/07 10:19:42;;;;;;;11.85;5.45;;;;;;;;;;5072497;28;20024;-50
2021/11/07 10:22:20;;;;;;;10.95;3.55;;;;;;;;;;5065197;28;20033;-50
2021/11/07 10:24:54;;;;;;;7.03;3.53;;;;;;;;;;5059845;28;20021;-50
2021/11/07 10:27:20;;;;;;;7.72;2.75;;;;;;;;;;5060630;28;20036;-50
2021/11/07 10:29:49;;;;;;;7.03;2.97;;;;;;;;;;5062344;28;20021;-51
2021/11/07 10:32:33;;;;;;;11.30;4.55;;;;;;;;;;5063772;28;20040;-51
2021/11/07 10:35:37;;;;;;;8.27;4.50;;;;;;;;;;5064624;28;20037;-51
2021/11/07 10:43:45;;;;;;;17.23;5.53;;;;;;;;;;5059738;28;20021;-51
2021/11/07 10:47:17;;;;;;;12.75;5.40;;;;;;;;;;5061091;28;20029;-51
2021/11/07 10:52:18;;;;;;;12.70;4.90;;;;;;;;;;5052147;28;20039;-51
2021/11/07 10:54:44;;;;;;;19.58;7.15;;;;;;;;;;5051271;28;20033;-50
2021/11/07 10:57:15;;;;;;;9.23;4.45;;;;;;;;;;5051875;28;20021;-51
2021/11/07 10:59:42;;;;;;;8.40;4.03;;;;;;;;;;5061313;28;20039;-50
2021/11/07 11:02:27;;;;;;;15.68;6.60;;;;;;;;;;5065908;28;20082;-51
2021/11/07 11:05:07;;;;;;;14.00;6.05;;;;;;;;;;5072645;28;20032;-50
2021/11/07 11:07:33;;;;;;;14.75;5.63;;;;;;;;;;5063585;28;20064;-50
2021/11/07 11:10:11;;;;;;;13.50;5.57;;;;;;;;;;5065476;28;20361;-50
2021/11/07 11:12:57;;;;;;;10.80;5.30;;;;;;;;;;5070343;28;20336;-50
2021/11/07 11:15:32;;;;;;;17.70;6.07;;;;;;;;;;5064216;28;20433;-50
2021/11/07 11:18:07;;;;;;;11.07;4.78;;;;;;;;;;5068545;28;20169;-50
2021/11/07 11:20:53;;;;;;;7.65;3.42;;;;;;;;;;5067991;28;20035;-50
2021/11/07 11:23:46;;;;;;;11.15;5.40;;;;;;;;;;5057891;28;20029;-50
2021/11/07 11:26:24;;;;;;;16.20;6.50;;;;;;;;;;5055794;28;20033;-50
2021/11/07 11:31:41;;;;;;;22.48;4.88;;;;;;;;;;5067689;28;20060;-51
2021/11/07 11:34:13;;;;;;;16.80;5.70;;;;;;;;;;5074002;28;20116;-50
2021/11/07 11:36:47;;;;;;;17.50;6.53;;;;;;;;;;5075226;28;20358;-50
2021/11/07 11:39:22;;;;;;;14.10;5.05;;;;;;;;;;5070482;28;20386;-50
2021/11/07 11:41:59;;;;;;;9.13;5.00;;;;;;;;;;5073052;28;20450;-50
2021/11/07 11:44:25;;;;;;;5.18;2.35;;;;;;;;;;5073461;28;20094;-50
2021/11/07 11:47:11;;;;;;;5.38;2.15;;;;;;;;;;5057401;28;20362;-51
2021/11/07 11:52:46;;;;;;;1.60;1.30;;;;;;;;;;5061667;28;20039;-50
2021/11/07 11:55:38;;;;;;;12.48;5.22;;;;;;;;;;5066688;28;20428;-50
2021/11/07 11:58:17;;;;;;;14.88;4.93;;;;;;;;;;5054205;28;20029;-50
2021/11/07 12:01:03;;;;;;;13.20;5.32;;;;;;;;;;5054819;28;20035;-50
2021/11/07 12:03:34;;;;;;;16.50;6.75;;;;;;;;;;5065024;28;20113;-50
2021/11/07 12:06:09;;;;;;;16.58;6.00;;;;;;;;;;5061000;28;20469;-50
2021/11/07 12:08:52;;;;;;;26.83;4.72;;;;;;;;;;5068297;28;20029;-50
2021/11/07 12:11:34;;;;;;;8.10;4.30;;;;;;;;;;5074345;28;20074;-50
2021/11/07 12:16:49;;;;;;;9.32;4.07;;;;;;;;;;5053454;28;20029;-50
2021/11/07 12:19:16;;;;;;;16.17;7.28;;;;;;;;;;5053941;28;20398;-50
2021/11/07 12:21:51;;;;;;;19.83;8.48;;;;;;;;;;5054348;28;20014;-50
2021/11/07 12:24:17;;;;;;;14.27;6.20;;;;;;;;;;5053257;28;20025;-50
2021/11/07 12:26:44;;;;;;;14.32;6.07;;;;;;;;;;5053207;28;20021;-50
2021/11/07 12:29:10;;;;;;;12.93;6.40;;;;;;;;;;5069281;28;20055;-50
2021/11/07 12:31:56;;;;;;;11.48;5.03;;;;;;;;;;5073554;28;20485;-50
2021/11/07 12:34:24;;;;;;;18.52;7.63;;;;;;;;;;5072726;28;20479;-51
2021/11/07 12:42:24;;;;;;;8.45;4.13;;;;;;;;;;5062527;28;20185;-50
2021/11/07 12:44:52;;;;;;;18.65;7.95;;;;;;;;;;5065453;28;20078;-51
2021/11/07 12:47:24;;;;;;;13.00;6.13;;;;;;;;;;5064448;28;20438;-50
2021/11/07 12:50:07;;;;;;;16.15;7.13;;;;;;;;;;5063008;28;20450;-50
2021/11/07 12:52:50;;;;;;;19.05;6.45;;;;;;;;;;5065864;28;20524;-50
2021/11/07 12:55:31;;;;;;;12.93;5.40;;;;;;;;;;5063215;28;20044;-50
2021/11/07 12:57:57;;;;;;;6.45;3.63;;;;;;;;;;5071659;28;20040;-50
2021/11/07 13:00:23;;;;;;;20.00;9.10;;;;;;;;;;5067339;28;20551;-50
2021/11/07 13:02:49;;;;;;;20.30;6.30;;;;;;;;;;5067708;28;20063;-50
2021/11/07 13:05:18;;;;;;;14.88;5.22;;;;;;;;;;5072481;28;20033;-50
2021/11/07 13:10:23;;;;;;;1.85;1.70;;;;;;;;;;5073264;28;20025;-51
2021/11/07 13:12:55;;;;;;;16.85;7.28;;;;;;;;;;5072793;28;20564;-51
2021/11/07 13:21:23;;;;;;;14.48;6.57;;;;;;;;;;5068440;28;20025;-50
2021/11/07 13:26:42;;;;;;;19.20;7.63;;;;;;;;;;5068692;28;20370;-51
2021/11/07 13:29:21;;;;;;;10.95;5.95;;;;;;;;;;5072420;28;20020;-52
2021/11/07 13:32:14;;;;;;;11.10;4.80;;;;;;;;;;5067042;28;20115;-52
2021/11/07 13:34:52;;;;;;;12.75;5.57;;;;;;;;;;5071570;28;20036;-53
2021/11/07 13:37:20;;;;;;;4.50;2.55;;;;;;;;;;5072858;28;20059;-52
2021/11/07 13:39:45;;;;;;;12.98;4.80;;;;;;;;;;5072436;28;20107;-52
2021/11/07 13:42:14;;;;;;;13.10;6.00;;;;;;;;;;5070553;28;20143;-52
2021/11/07 13:44:54;;;;;;;13.52;6.93;;;;;;;;;;5064379;28;20055;-52
2021/11/07 13:47:20;;;;;;;;;;;;;;;;;;5068555;28;20028;-52
2021/11/07 13:49:50;;;;;;;9.45;4.53;;;;;;;;;;5072699;28;19911;-52
2021/11/07 13:52:17;;;;;;;11.65;5.45;;;;;;;;;;5068388;28;20060;-52
2021/11/07 13:54:43;;;;;;;6.45;2.33;;;;;;;;;;5067102;28;20481;-52
2021/11/07 13:57:09;;;;;;;9.40;5.07;;;;;;;;;;5068349;28;20040;-52
2021/11/07 13:59:43;;;;;;;17.95;6.80;;;;;;;;;;5069260;28;20020;-52
2021/11/07 14:02:20;;;;;;;8.88;5.80;;;;;;;;;;5071983;28;20122;-52
2021/11/07 14:04:47;;;;;;;12.48;5.43;;;;;;;;;;5071614;28;20024;-52
2021/11/07 14:07:13;;;;;;;11.30;4.88;;;;;;;;;;5073283;28;20048;-52
2021/11/07 14:09:54;;;;;;;11.60;5.75;;;;;;;;;;5072116;28;20354;-52
2021/11/07 14:12:31;;;;;;;11.18;5.10;;;;;;;;;;5072176;28;20362;-53
2021/11/07 14:15:05;;;;;;;7.28;3.42;;;;;;;;;;5071479;28;20531;-52
2021/11/07 14:17:32;;;;;;;11.65;5.60;;;;;;;;;;5072423;28;20032;-52
2021/11/07 14:19:58;;;;;;;7.53;3.30;;;;;;;;;;5071891;28;20374;-52
2021/11/07 14:22:24;;;;;;;10.35;4.80;;;;;;;;;;5072491;28;20105;-52
2021/11/07 14:24:50;;;;;;;8.13;3.78;;;;;;;;;;5058360;28;20029;-53
2021/11/07 14:27:23;;;;;;;10.75;4.93;;;;;;;;;;5052412;28;20021;-53
2021/11/07 14:29:59;;;;;;;14.18;5.15;;;;;;;;;;5052348;28;20036;-52
2021/11/07 14:32:33;;;;;;;11.80;4.80;;;;;;;;;;5051741;28;20036;-53
2021/11/07 14:35:22;;;;;;;11.85;4.70;;;;;;;;;;5051380;28;20036;-52
2021/11/07 14:37:56;;;;;;;15.18;5.68;;;;;;;;;;5050859;28;20021;-52
2021/11/07 14:40:27;;;;;;;12.65;5.60;;;;;;;;;;5056404;28;20025;-52
2021/11/07 14:43:03;;;;;;;8.25;3.47;;;;;;;;;;5055729;28;20021;-52
2021/11/07 14:45:37;;;;;;;11.80;4.80;;;;;;;;;;5056716;28;20033;-52
2021/11/07 14:51:10;;;;;;;12.50;4.68;;;;;;;;;;5056526;28;20029;-52
2021/11/07 14:59:43;;;;;;;10.82;5.70;;;;;;;;;;5094092;28;20039;-49
2021/11/07 15:02:48;;;;;;;9.52;5.20;;;;;;;;;;5093537;28;20392;-50
2021/11/07 15:07:53;;;;;;;12.45;5.00;;;;;;;;;;5093594;28;20036;-50
2021/11/07 15:10:38;;;;;;;8.43;3.80;;;;;;;;;;5093628;28;20108;-49
2021/11/07 15:13:20;;;;;;;9.70;4.75;;;;;;;;;;5092808;28;20111;-49
2021/11/07 15:18:19;;;;;;;14.20;6.05;;;;;;;;;;5093247;28;20466;-50
2021/11/07 15:20:56;;;;;;;16.20;5.63;;;;;;;;;;5093194;28;20172;-50
2021/11/07 15:23:28;;;;;;;8.75;4.97;;;;;;;;;;5092198;28;20128;-50
2021/11/07 15:25:54;;;;;;;11.07;5.28;;;;;;;;;;5093184;28;20119;-49
2021/11/07 15:28:24;;;;;;;9.75;4.95;;;;;;;;;;5092969;28;20038;-49
2021/11/07 15:30:50;;;;;;;11.85;5.32;;;;;;;;;;5093067;28;20039;-50
2021/11/07 15:33:17;;;;;;;6.85;4.00;;;;;;;;;;5062319;28;20035;-50
2021/11/07 15:35:44;;;;;;;10.48;5.35;;;;;;;;;;5055314;28;20138;-50
2021/11/07 15:38:12;;;;;;;10.88;5.28;;;;;;;;;;5055484;28;20075;-49
2021/11/07 15:40:40;;;;;;;10.00;4.57;;;;;;;;;;5055071;28;20425;-49
2021/11/07 15:43:20;;;;;;;10.25;4.95;;;;;;;;;;5054619;28;20029;-50
2021/11/07 15:46:05;;;;;;;9.80;5.13;;;;;;;;;;5054551;28;20485;-49
2021/11/07 15:48:38;;;;;;;11.02;4.90;;;;;;;;;;5055066;28;20116;-52
2021/11/07 15:51:12;;;;;;;8.65;4.50;;;;;;;;;;5054131;28;20035;-52
2021/11/07 15:56:20;;;;;;;8.40;4.03;;;;;;;;;;5054501;28;20510;-52
2021/11/07 16:03:53;;;;;;;7.75;4.82;;;;;;;;;;5054333;28;20036;-53
2021/11/07 16:06:31;;;;;;;14.20;4.70;;;;;;;;;;5055029;28;20100;-52
2021/11/07 16:19:02;;;;;;;11.15;5.05;;;;;;;;;;5054300;28;20040;-53
2021/11/07 16:21:30;;;;;;;11.63;4.45;;;;;;;;;;5053070;28;20025;-52
2021/11/07 16:24:02;;;;;;;10.93;5.00;;;;;;;;;;5053735;28;20021;-52
2021/11/07 16:26:29;;;;;;;9.07;4.35;;;;;;;;;;5054225;28;20029;-52
2021/11/07 16:28:55;;;;;;;8.13;4.80;;;;;;;;;;5054390;28;20029;-52
2021/11/07 16:31:26;;;;;;;20.20;6.32;;;;;;;;;;5053544;28;20420;-53
2021/11/07 16:33:54;;;;;;;10.40;4.45;;;;;;;;;;5053061;28;20480;-52
2021/11/07 16:36:24;;;;;;;10.00;4.22;;;;;;;;;;5054019;28;20025;-52
2021/11/07 16:38:56;;;;;;;7.55;4.70;;;;;;;;;;5054487;28;20028;-52
2021/11/07 16:42:09;;;;;;;10.15;4.75;;;;;;;;;;5054046;28;20032;-53
2021/11/07 16:44:13;;;;;;;10.20;4.72;;;;;;;;;;5054945;28;20033;-52
2021/11/07 16:46:44;;;;;;;9.00;4.65;;;;;;;;;;5053893;28;20581;-52
2021/11/07 16:49:12;;;;;;;11.45;5.07;;;;;;;;;;5059591;28;20362;-52
2021/11/07 16:51:48;;;;;;;8.52;4.32;;;;;;;;;;5064617;28;20036;-52
2021/11/07 16:54:26;;;;;;;7.40;3.70;;;;;;;;;;5061243;28;20102;-52
2021/11/07 16:56:53;;;;;;;10.88;4.60;;;;;;;;;;5063982;28;20085;-52